createdAt,value
2022-11-05T00:00:18.272Z,6.40
2022-11-05T00:03:26.895Z,6.30
2022-11-05T00:06:09.506Z,6.30
2022-11-05T00:08:55.455Z,6.30
2022-11-05T00:11:44.593Z,6.20
2022-11-05T00:14:30.877Z,6.20
2022-11-05T00:17:00.524Z,6.30
2022-11-05T00:19:28.719Z,6.20
2022-11-05T00:22:14.317Z,6.20
2022-11-05T00:24:59.775Z,6.30
2022-11-05T00:27:27.947Z,6.30
2022-11-05T00:29:56.236Z,6.20
2022-11-05T00:32:25.754Z,6.20
2022-11-05T00:34:54.053Z,6.20
2022-11-05T00:37:22.421Z,6.20
2022-11-05T00:39:50.577Z,6.20
2022-11-05T00:42:36.498Z,6.20
2022-11-05T00:45:05.874Z,6.20
2022-11-05T00:47:53.552Z,6.20
2022-11-05T00:50:23.500Z,6.20
2022-11-05T00:52:59.519Z,6.20
2022-11-05T00:55:34.485Z,6.20
2022-11-05T00:58:04.525Z,6.10
2022-11-05T01:00:34.234Z,6.10
2022-11-05T01:03:06.321Z,6.10
2022-11-05T01:05:35.974Z,6.10
2022-11-05T01:08:04.285Z,6.10
2022-11-05T01:10:35.278Z,6.10
2022-11-05T01:13:07.566Z,6.20
2022-11-05T01:15:38.691Z,6.20
2022-11-05T01:18:08.699Z,6.20
2022-11-05T01:20:36.880Z,6.20
2022-11-05T01:23:10.269Z,6.20
2022-11-05T01:25:41.468Z,6.20
2022-11-05T01:28:10.706Z,6.10
2022-11-05T01:30:39.651Z,6.00
2022-11-05T01:33:09.771Z,6.00
2022-11-05T01:35:38.279Z,6.00
2022-11-05T01:38:06.473Z,6.00
2022-11-05T01:40:34.834Z,5.90
2022-11-05T01:43:02.961Z,5.90
2022-11-05T01:45:31.457Z,5.80
2022-11-05T01:48:04.187Z,5.80
2022-11-05T01:50:38.552Z,5.70
2022-11-05T01:53:14.149Z,5.70
2022-11-05T01:55:45.642Z,5.70
2022-11-05T01:58:22.026Z,5.60
2022-11-05T02:00:50.304Z,5.50
2022-11-05T02:03:19.377Z,5.50
2022-11-05T02:05:51.757Z,5.50
2022-11-05T02:08:30.292Z,5.40
2022-11-05T02:10:59.281Z,5.40
2022-11-05T02:13:27.822Z,5.40
2022-11-05T02:16:04.568Z,5.50
2022-11-05T02:18:48.010Z,5.60
2022-11-05T02:21:38.456Z,5.50
2022-11-05T02:24:33.884Z,5.50
2022-11-05T02:27:44.618Z,5.40
2022-11-05T02:30:39.183Z,5.40
2022-11-05T02:33:16.278Z,5.30
2022-11-05T02:36:01.103Z,5.40
2022-11-05T02:38:40.527Z,5.30
2022-11-05T02:41:14.990Z,5.30
2022-11-05T02:43:53.932Z,5.30
2022-11-05T02:46:35.375Z,5.30
2022-11-05T02:49:14.858Z,5.30
2022-11-05T02:51:50.489Z,5.40
2022-11-05T02:54:24.261Z,5.40
2022-11-05T02:56:56.083Z,5.50
2022-11-05T02:59:24.422Z,5.50
2022-11-05T03:01:55.211Z,5.50
2022-11-05T03:04:25.361Z,5.50
2022-11-05T03:07:08.516Z,5.60
2022-11-05T03:10:10.521Z,5.60
2022-11-05T03:12:47.878Z,5.60
2022-11-05T03:15:27.861Z,5.70
2022-11-05T03:18:07.396Z,5.70
2022-11-05T03:20:40.855Z,5.80
2022-11-05T03:23:15.978Z,5.80
2022-11-05T03:25:48.671Z,5.80
2022-11-05T03:28:20.297Z,5.90
2022-11-05T03:30:51.470Z,5.90
2022-11-05T03:33:26.590Z,5.80
2022-11-05T03:35:58.091Z,5.80
2022-11-05T03:38:34.048Z,5.70
2022-11-05T03:41:07.466Z,5.70
2022-11-05T03:43:38.774Z,5.70
2022-11-05T03:46:10.686Z,5.70
2022-11-05T03:48:45.902Z,5.70
2022-11-05T03:51:19.584Z,5.70
2022-11-05T03:53:51.317Z,5.70
2022-11-05T03:56:26.719Z,5.70
2022-11-05T03:58:59.106Z,5.60
2022-11-05T04:01:28.242Z,5.60
2022-11-05T04:03:58.037Z,5.60
2022-11-05T04:06:44.326Z,5.70
2022-11-05T04:09:30.929Z,5.70
2022-11-05T04:12:16.736Z,5.70
2022-11-05T04:14:45.245Z,5.70
2022-11-05T04:17:12.766Z,5.70
2022-11-05T04:20:01.301Z,5.70
2022-11-05T04:22:49.297Z,5.70
2022-11-05T04:25:18.961Z,5.70
2022-11-05T04:27:48.044Z,5.70
2022-11-05T04:30:20.532Z,5.70
2022-11-05T04:33:04.313Z,5.70
2022-11-05T04:35:35.659Z,5.70
2022-11-05T04:38:05.149Z,5.70
2022-11-05T04:40:33.721Z,5.60
2022-11-05T04:43:02.057Z,5.50
2022-11-05T04:45:34.351Z,5.50
2022-11-05T04:48:02.949Z,5.50
2022-11-05T04:50:33.673Z,5.40
2022-11-05T04:53:02.043Z,5.40
2022-11-05T04:55:30.245Z,5.40
2022-11-05T04:58:00.254Z,5.40
2022-11-05T05:00:28.522Z,5.30
2022-11-05T05:03:08.027Z,5.30
2022-11-05T05:05:37.935Z,5.30
2022-11-05T05:08:06.795Z,5.20
2022-11-05T05:10:35.378Z,5.10
2022-11-05T05:13:03.568Z,5.00
2022-11-05T05:15:32.133Z,5.00
2022-11-05T05:18:00.838Z,5.00
2022-11-05T05:20:46.758Z,5.00
2022-11-05T05:23:16.553Z,5.00
2022-11-05T05:25:44.688Z,5.00
2022-11-05T05:28:13.020Z,4.90
2022-11-05T05:30:41.391Z,5.00
2022-11-05T05:33:09.787Z,4.90
2022-11-05T05:35:38.070Z,5.00
2022-11-05T05:38:06.410Z,5.00
2022-11-05T05:40:36.039Z,5.00
2022-11-05T05:43:07.256Z,4.90
2022-11-05T05:45:36.937Z,5.00
2022-11-05T05:48:05.435Z,5.00
2022-11-05T05:50:33.906Z,5.00
2022-11-05T05:53:02.195Z,5.00
2022-11-05T05:55:30.400Z,5.10
2022-11-05T05:58:00.291Z,5.10
2022-11-05T06:00:28.402Z,5.10
2022-11-05T06:02:57.332Z,5.20
2022-11-05T06:05:25.863Z,5.20
2022-11-05T06:07:57.609Z,5.20
2022-11-05T06:10:26.522Z,5.10
2022-11-05T06:12:54.713Z,5.10
2022-11-05T06:15:24.202Z,5.00
2022-11-05T06:17:52.518Z,4.90
2022-11-05T06:20:21.001Z,4.80
2022-11-05T06:22:55.870Z,4.70
2022-11-05T06:25:24.199Z,4.60
2022-11-05T06:27:52.448Z,4.60
2022-11-05T06:30:21.808Z,4.50
2022-11-05T06:32:51.460Z,4.50
2022-11-05T06:35:19.806Z,4.50
2022-11-05T06:37:48.190Z,4.40
2022-11-05T06:40:16.409Z,4.50
2022-11-05T06:42:44.528Z,4.50
2022-11-05T06:45:12.916Z,4.50
2022-11-05T06:47:41.040Z,4.50
2022-11-05T06:50:10.995Z,4.40
2022-11-05T06:52:41.213Z,4.40
2022-11-05T06:55:10.337Z,4.50
2022-11-05T06:57:39.683Z,4.50
2022-11-05T07:00:09.774Z,4.50
2022-11-05T07:02:37.917Z,4.60
2022-11-05T07:05:07.397Z,4.60
2022-11-05T07:07:37.098Z,4.60
2022-11-05T07:10:05.606Z,4.60
2022-11-05T07:12:33.754Z,4.70
2022-11-05T07:15:02.157Z,4.60
2022-11-05T07:17:30.319Z,4.60
2022-11-05T07:19:58.495Z,4.70
2022-11-05T07:22:27.181Z,4.80
2022-11-05T07:24:56.797Z,4.80
2022-11-05T07:27:25.114Z,4.80
2022-11-05T07:29:53.456Z,4.90
2022-11-05T07:32:21.626Z,4.90
2022-11-05T07:34:49.749Z,5.00
2022-11-05T07:37:18.173Z,5.00
2022-11-05T07:39:46.304Z,5.10
2022-11-05T07:42:15.880Z,5.10
2022-11-05T07:44:44.571Z,5.20
2022-11-05T07:47:12.773Z,5.30
2022-11-05T07:49:40.964Z,5.40
2022-11-05T07:52:09.358Z,5.60
2022-11-05T07:54:40.510Z,5.70
2022-11-05T07:57:08.685Z,5.90
2022-11-05T07:59:38.296Z,6.10
2022-11-05T08:02:07.027Z,6.30
2022-11-05T08:04:35.836Z,6.50
2022-11-05T08:07:03.954Z,6.70
2022-11-05T08:09:32.047Z,6.80
2022-11-05T08:12:03.126Z,6.80
2022-11-05T08:14:31.724Z,6.90
2022-11-05T08:17:01.212Z,6.90
2022-11-05T08:19:29.314Z,7.10
2022-11-05T08:21:57.603Z,7.10
2022-11-05T08:24:25.873Z,7.10
2022-11-05T08:26:54.719Z,7.20
2022-11-05T08:29:23.101Z,7.30
2022-11-05T08:31:51.294Z,7.50
2022-11-05T08:34:20.838Z,7.60
2022-11-05T08:36:48.985Z,7.70
2022-11-05T08:39:18.888Z,7.90
2022-11-05T08:41:47.209Z,7.90
2022-11-05T08:44:15.581Z,8.00
2022-11-05T08:46:44.123Z,8.00
2022-11-05T08:49:12.367Z,8.00
2022-11-05T08:51:42.180Z,8.00
2022-11-05T08:54:10.483Z,8.10
2022-11-05T08:56:38.609Z,8.10
2022-11-05T08:59:07.297Z,8.00
2022-11-05T09:01:35.824Z,8.00
2022-11-05T09:04:04.317Z,8.00
2022-11-05T09:06:32.931Z,8.00
2022-11-05T09:09:02.530Z,8.00
2022-11-05T09:11:57.051Z,8.00
2022-11-05T09:14:19.024Z,8.10
2022-11-05T09:16:47.229Z,8.10
2022-11-05T09:19:15.342Z,8.10
2022-11-05T09:21:44.525Z,8.20
2022-11-05T09:24:14.153Z,8.20
2022-11-05T09:26:42.452Z,8.20
2022-11-05T09:29:14.372Z,8.20
2022-11-05T09:31:43.459Z,8.20
2022-11-05T09:34:11.780Z,8.20
2022-11-05T09:36:39.940Z,8.30
2022-11-05T09:39:08.160Z,8.40
2022-11-05T09:41:41.178Z,8.30
2022-11-05T09:44:14.908Z,8.40
2022-11-05T09:46:49.722Z,8.40
2022-11-05T09:49:27.684Z,8.60
2022-11-05T09:51:57.895Z,8.70
2022-11-05T09:54:29.217Z,8.90
2022-11-05T09:57:01.018Z,9.10
2022-11-05T09:59:36.216Z,9.20
2022-11-05T10:02:12.555Z,9.40
2022-11-05T10:04:42.921Z,9.50
2022-11-05T10:07:17.014Z,9.70
2022-11-05T10:09:49.304Z,9.80
2022-11-05T10:12:24.008Z,10.00
2022-11-05T10:15:08.293Z,9.90
2022-11-05T10:17:39.345Z,9.90
2022-11-05T10:20:15.262Z,9.90
2022-11-05T10:22:48.301Z,9.90
2022-11-05T10:25:20.764Z,9.80
2022-11-05T10:27:53.629Z,9.90
2022-11-05T10:30:22.800Z,10.10
2022-11-05T10:32:55.823Z,10.10
2022-11-05T10:35:25.919Z,10.20
2022-11-05T10:37:54.724Z,10.30
2022-11-05T10:40:33.107Z,10.30
2022-11-05T10:43:07.427Z,10.20
2022-11-05T10:45:47.657Z,10.00
2022-11-05T10:48:46.736Z,10.00
2022-11-05T10:51:17.414Z,10.00
2022-11-05T10:53:55.948Z,10.00
2022-11-05T10:56:31.296Z,10.00
2022-11-05T10:59:06.746Z,9.90
2022-11-05T11:01:38.326Z,9.90
2022-11-05T11:04:15.227Z,10.00
2022-11-05T11:06:50.220Z,10.00
2022-11-05T11:09:24.651Z,10.00
2022-11-05T11:12:02.023Z,10.00
2022-11-05T11:14:32.084Z,10.10
2022-11-05T11:17:24.511Z,10.20
2022-11-05T11:19:53.574Z,10.40
2022-11-05T11:22:23.019Z,10.70
2022-11-05T11:24:54.059Z,11.00
2022-11-05T11:27:28.407Z,11.20
2022-11-05T11:30:00.446Z,11.30
2022-11-05T11:32:34.324Z,11.10
2022-11-05T11:35:03.512Z,11.00
2022-11-05T11:37:34.956Z,11.10
2022-11-05T11:40:05.732Z,10.90
2022-11-05T11:42:36.129Z,10.90
2022-11-05T11:45:17.642Z,10.90
2022-11-05T11:47:50.435Z,10.90
2022-11-05T11:50:34.950Z,10.90
2022-11-05T11:53:35.944Z,10.80
2022-11-05T11:56:12.436Z,10.70
2022-11-05T11:58:44.003Z,10.80
2022-11-05T12:01:47.056Z,10.80
2022-11-05T12:04:35.219Z,10.80
2022-11-05T12:07:14.249Z,10.80
2022-11-05T12:09:59.328Z,10.80
2022-11-05T12:12:45.719Z,10.80
2022-11-05T12:15:28.769Z,10.90
2022-11-05T12:18:03.820Z,10.90
2022-11-05T12:20:48.390Z,10.90
2022-11-05T12:23:36.593Z,10.90
2022-11-05T12:26:12.063Z,11.00
2022-11-05T12:29:17.296Z,11.20
2022-11-05T12:31:49.592Z,11.30
2022-11-05T12:34:36.341Z,11.40
2022-11-05T12:37:17.478Z,11.30
2022-11-05T12:40:00.828Z,11.40
2022-11-05T12:42:42.076Z,11.40
2022-11-05T12:45:23.590Z,11.60
2022-11-05T12:48:06.845Z,11.50
2022-11-05T12:50:44.516Z,11.50
2022-11-05T12:53:54.044Z,11.60
2022-11-05T12:56:32.139Z,11.60
2022-11-05T12:59:04.432Z,11.60
2022-11-05T13:01:36.757Z,11.60
2022-11-05T13:04:13.185Z,11.60
2022-11-05T13:06:46.202Z,11.70
2022-11-05T13:09:17.723Z,11.70
2022-11-05T13:11:50.820Z,11.70
2022-11-05T13:14:23.165Z,11.80
2022-11-05T13:16:58.028Z,11.80
2022-11-05T13:19:29.679Z,11.80
2022-11-05T13:22:08.018Z,11.80
2022-11-05T13:24:41.274Z,11.90
2022-11-05T13:27:24.957Z,11.90
2022-11-05T13:29:58.042Z,11.90
2022-11-05T13:32:32.285Z,11.90
2022-11-05T13:35:04.061Z,11.90
2022-11-05T13:37:54.574Z,11.90
2022-11-05T13:40:29.319Z,11.90
2022-11-05T13:43:17.390Z,11.80
2022-11-05T13:46:11.248Z,11.70
2022-11-05T13:49:08.254Z,11.60
2022-11-05T13:51:53.143Z,11.60
2022-11-05T13:54:53.012Z,11.60
2022-11-05T13:57:39.188Z,11.50
2022-11-05T14:00:13.627Z,11.50
2022-11-05T14:02:45.269Z,11.50
2022-11-05T14:05:25.022Z,11.50
2022-11-05T14:07:54.855Z,11.50
2022-11-05T14:10:35.198Z,11.60
2022-11-05T14:13:17.763Z,11.50
2022-11-05T14:15:58.565Z,11.50
2022-11-05T14:18:42.835Z,11.50
2022-11-05T14:21:31.171Z,11.60
2022-11-05T14:24:00.539Z,11.70
2022-11-05T14:26:33.262Z,11.70
2022-11-05T14:29:26.265Z,11.80
2022-11-05T14:32:10.500Z,11.80
2022-11-05T14:34:45.581Z,11.70
2022-11-05T14:37:37.136Z,11.60
2022-11-05T14:40:36.313Z,11.60
2022-11-05T14:43:16.819Z,11.50
2022-11-05T14:46:06.183Z,11.50
2022-11-05T14:48:40.526Z,11.50
2022-11-05T14:51:27.722Z,11.40
2022-11-05T14:54:04.467Z,11.40
2022-11-05T14:56:44.582Z,11.40
2022-11-05T14:59:56.841Z,11.40
2022-11-05T15:02:32.521Z,11.40
2022-11-05T15:05:37.604Z,11.30
2022-11-05T15:08:43.107Z,11.30
2022-11-05T15:11:18.020Z,11.30
2022-11-05T15:13:58.009Z,11.20
2022-11-05T15:16:31.366Z,11.20
2022-11-05T15:19:01.745Z,11.20
2022-11-05T15:21:34.309Z,11.20
2022-11-05T15:24:05.098Z,11.20
2022-11-05T15:26:42.681Z,11.20
2022-11-05T15:29:19.619Z,11.10
2022-11-05T15:31:48.535Z,11.20
2022-11-05T15:34:24.644Z,11.10
2022-11-05T15:36:56.112Z,11.10
2022-11-05T15:39:29.727Z,11.10
2022-11-05T15:41:59.849Z,11.10
2022-11-05T15:44:30.378Z,11.00
2022-11-05T15:47:20.219Z,11.00
2022-11-05T15:49:52.057Z,11.00
2022-11-05T15:52:22.637Z,11.00
2022-11-05T15:55:11.410Z,10.90
2022-11-05T15:57:50.262Z,10.90
2022-11-05T16:00:21.413Z,10.90
2022-11-05T16:02:57.075Z,10.90
2022-11-05T16:05:28.482Z,10.90
2022-11-05T16:08:00.084Z,10.80
2022-11-05T16:10:31.032Z,10.80
2022-11-05T16:13:23.713Z,10.80
2022-11-05T16:15:56.029Z,10.80
2022-11-05T16:18:26.817Z,10.70
2022-11-05T16:21:04.627Z,10.70
2022-11-05T16:23:44.934Z,10.60
2022-11-05T16:29:29.481Z,10.60
2022-11-05T16:32:02.577Z,10.60
2022-11-05T16:34:36.616Z,10.50
2022-11-05T16:37:07.526Z,10.50
2022-11-05T16:39:35.964Z,10.50
2022-11-05T16:42:21.314Z,10.50
2022-11-05T16:44:49.894Z,10.50
2022-11-05T16:47:19.134Z,10.50
2022-11-05T16:49:48.884Z,10.50
2022-11-05T16:52:19.781Z,10.60
2022-11-05T16:54:49.233Z,10.50
2022-11-05T16:57:25.429Z,10.50
2022-11-05T16:59:54.528Z,10.50
2022-11-05T17:02:24.295Z,10.50
2022-11-05T17:04:55.410Z,10.50
2022-11-05T17:07:26.638Z,10.50
2022-11-05T17:09:56.020Z,10.40
2022-11-05T17:12:24.275Z,10.40
2022-11-05T17:14:57.746Z,10.40
2022-11-05T17:17:29.116Z,10.40
2022-11-05T17:19:57.329Z,10.40
2022-11-05T17:22:46.663Z,10.40
2022-11-05T17:25:14.849Z,10.30
2022-11-05T17:27:42.968Z,10.30
2022-11-05T17:30:12.774Z,10.30
2022-11-05T17:32:41.100Z,10.30
2022-11-05T17:35:10.268Z,10.40
2022-11-05T17:37:38.664Z,10.30
2022-11-05T17:40:11.691Z,10.40
2022-11-05T17:42:40.173Z,10.30
2022-11-05T17:45:09.908Z,10.40
2022-11-05T17:47:57.875Z,10.40
2022-11-05T17:50:28.029Z,10.30
2022-11-05T17:52:56.140Z,10.30
2022-11-05T17:55:26.127Z,10.30
2022-11-05T17:57:54.442Z,10.40
2022-11-05T18:00:43.735Z,10.40
2022-11-05T18:03:13.259Z,10.40
2022-11-05T18:05:42.403Z,10.40
2022-11-05T18:08:11.213Z,10.40
2022-11-05T18:10:41.967Z,10.40
2022-11-05T18:13:11.152Z,10.40
2022-11-05T18:15:41.254Z,10.40
2022-11-05T18:18:10.007Z,10.40
2022-11-05T18:20:38.749Z,10.50
2022-11-05T18:23:07.209Z,10.50
2022-11-05T18:25:35.309Z,10.50
2022-11-05T18:28:08.218Z,10.50
2022-11-05T18:30:38.708Z,10.50
2022-11-05T18:33:07.155Z,10.50
2022-11-05T18:35:35.388Z,10.50
2022-11-05T18:38:03.941Z,10.50
2022-11-05T18:40:32.021Z,10.50
2022-11-05T18:43:00.243Z,10.50
2022-11-05T18:45:31.653Z,10.50
2022-11-05T18:48:00.840Z,10.60
2022-11-05T18:50:29.611Z,10.50
2022-11-05T18:52:57.970Z,10.50
2022-11-05T18:55:26.510Z,10.50
2022-11-05T18:57:54.631Z,10.50
2022-11-05T19:00:22.987Z,10.50
2022-11-05T19:02:52.734Z,10.50
2022-11-05T19:05:29.629Z,10.50
2022-11-05T19:07:58.321Z,10.50
2022-11-05T19:10:26.882Z,10.60
2022-11-05T19:12:55.312Z,10.60
2022-11-05T19:15:23.719Z,10.60
2022-11-05T19:17:53.396Z,10.60
2022-11-05T19:20:21.546Z,10.50
2022-11-05T19:22:50.066Z,10.50
2022-11-05T19:25:18.259Z,10.50
2022-11-05T19:27:46.554Z,10.50
2022-11-05T19:30:14.894Z,10.50
2022-11-05T19:32:43.127Z,10.50
2022-11-05T19:35:12.663Z,10.50
2022-11-05T19:37:40.900Z,10.50
2022-11-05T19:40:11.229Z,10.40
2022-11-05T19:42:39.439Z,10.40
2022-11-05T19:45:38.272Z,10.40
2022-11-05T19:47:56.958Z,10.40
2022-11-05T19:50:26.879Z,10.40
2022-11-05T19:52:55.166Z,10.40
2022-11-05T19:55:23.437Z,10.30
2022-11-05T19:57:52.736Z,10.20
2022-11-05T20:00:21.054Z,10.20
2022-11-05T20:02:49.388Z,10.20
2022-11-05T20:05:18.432Z,10.20
2022-11-05T20:07:52.775Z,10.10
2022-11-05T20:10:21.878Z,10.10
2022-11-05T20:12:50.109Z,10.20
2022-11-05T20:15:19.784Z,10.10
2022-11-05T20:17:52.409Z,10.10
2022-11-05T20:20:21.147Z,10.10
2022-11-05T20:22:52.822Z,10.00
2022-11-05T20:25:21.104Z,10.10
2022-11-05T20:27:49.291Z,10.00
2022-11-05T20:30:18.658Z,10.00
2022-11-05T20:32:46.912Z,10.00
2022-11-05T20:35:15.077Z,10.00
2022-11-05T20:37:43.636Z,10.00
2022-11-05T20:40:15.257Z,10.00
2022-11-05T20:42:44.184Z,10.00
2022-11-05T20:45:12.936Z,9.90
2022-11-05T20:47:41.319Z,10.00
2022-11-05T20:50:10.765Z,10.00
2022-11-05T20:52:38.979Z,10.00
2022-11-05T20:55:09.713Z,10.00
2022-11-05T20:57:39.597Z,10.00
2022-11-05T21:00:09.388Z,10.10
2022-11-05T21:02:40.610Z,10.10
2022-11-05T21:05:09.402Z,10.10
2022-11-05T21:07:37.787Z,10.10
2022-11-05T21:10:06.761Z,10.10
2022-11-05T21:12:34.987Z,10.20
2022-11-05T21:15:08.564Z,10.20
2022-11-05T21:17:37.660Z,10.30
2022-11-05T21:20:06.944Z,10.30
2022-11-05T21:22:35.490Z,10.30
2022-11-05T21:25:03.689Z,10.30
2022-11-05T21:27:31.795Z,10.30
2022-11-05T21:30:00.266Z,10.40
2022-11-05T21:32:29.810Z,10.40
2022-11-05T21:34:57.912Z,10.40
2022-11-05T21:37:26.565Z,10.30
2022-11-05T21:39:55.385Z,10.30
2022-11-05T21:42:23.928Z,10.30
2022-11-05T21:44:57.657Z,10.20
2022-11-05T21:47:30.609Z,10.20
2022-11-05T21:49:59.050Z,10.20
2022-11-05T21:52:44.380Z,10.20
2022-11-05T21:55:36.498Z,10.20
2022-11-05T21:58:29.640Z,10.10
2022-11-05T22:00:58.092Z,10.10
2022-11-05T22:03:27.713Z,10.00
2022-11-05T22:05:57.359Z,10.10
2022-11-05T22:08:25.885Z,10.10
2022-11-05T22:10:54.080Z,10.10
2022-11-05T22:13:22.178Z,10.10
2022-11-05T22:15:56.471Z,10.10
2022-11-05T22:18:24.636Z,10.10
2022-11-05T22:20:54.337Z,10.10
2022-11-05T22:23:22.553Z,10.20
2022-11-05T22:26:00.107Z,10.10
2022-11-05T22:28:28.280Z,10.10
2022-11-05T22:30:57.682Z,10.10
2022-11-05T22:33:26.125Z,10.10
2022-11-05T22:35:55.685Z,10.10
2022-11-05T22:38:24.090Z,10.10
2022-11-05T22:40:52.495Z,10.00
2022-11-05T22:43:20.936Z,10.10
2022-11-05T22:45:49.064Z,10.20
2022-11-05T22:48:19.687Z,10.20
2022-11-05T22:50:48.174Z,10.30
2022-11-05T22:53:17.858Z,10.30
2022-11-05T22:55:45.976Z,10.30
2022-11-05T22:58:14.515Z,10.30
2022-11-05T23:00:43.326Z,10.30
2022-11-05T23:03:11.889Z,10.30
2022-11-05T23:05:40.203Z,10.30
2022-11-05T23:08:25.604Z,10.30
2022-11-05T23:11:24.324Z,10.30
2022-11-05T23:13:52.433Z,10.30
2022-11-05T23:16:38.419Z,10.30
2022-11-05T23:19:23.734Z,10.30
2022-11-05T23:22:09.631Z,10.20
2022-11-05T23:24:37.776Z,10.20
2022-11-05T23:27:07.398Z,10.20
2022-11-05T23:29:35.610Z,10.30
2022-11-05T23:32:21.052Z,10.40
2022-11-05T23:34:49.267Z,10.40
2022-11-05T23:37:35.290Z,10.40
2022-11-05T23:40:04.161Z,10.50
2022-11-05T23:42:50.924Z,10.50
2022-11-05T23:45:37.109Z,10.50
2022-11-05T23:48:18.219Z,10.50
2022-11-05T23:50:49.150Z,10.50
2022-11-05T23:53:17.275Z,10.50
2022-11-05T23:55:45.477Z,10.50
2022-11-05T23:58:16.151Z,10.60
